createdAt,value
2018-10-17T00:01:46.307Z,16.79
2018-10-17T00:04:17.416Z,16.75
2018-10-17T00:06:46.464Z,16.72
2018-10-17T00:09:15.487Z,16.69
2018-10-17T00:11:44.529Z,16.62
2018-10-17T00:14:13.824Z,16.58
2018-10-17T00:16:42.884Z,16.54
2018-10-17T00:19:11.962Z,16.43
2018-10-17T00:21:41.008Z,16.41
2018-10-17T00:24:10.096Z,16.38
2018-10-17T00:26:39.138Z,16.38
2018-10-17T00:29:08.351Z,16.31
2018-10-17T00:31:37.278Z,16.31
2018-10-17T00:34:06.348Z,16.29
2018-10-17T00:36:36.422Z,16.22
2018-10-17T00:39:07.656Z,16.15
2018-10-17T00:41:36.872Z,16.13
2018-10-17T00:44:06.001Z,16.11
2018-10-17T00:46:35.073Z,16.06
2018-10-17T00:49:04.352Z,16.04
2018-10-17T00:51:33.402Z,15.98
2018-10-17T00:54:02.470Z,15.94
2018-10-17T00:56:31.668Z,15.97
2018-10-17T00:59:09.357Z,15.85
2018-10-17T01:01:38.859Z,15.84
2018-10-17T01:04:08.243Z,15.79
2018-10-17T01:06:39.413Z,15.74
2018-10-17T01:09:13.405Z,15.70
2018-10-17T01:11:42.653Z,15.65
2018-10-17T01:14:11.738Z,15.63
2018-10-17T01:16:41.720Z,15.56
2018-10-17T01:19:10.867Z,15.58
2018-10-17T01:21:39.820Z,15.53
2018-10-17T01:24:08.895Z,15.47
2018-10-17T01:26:37.946Z,15.40
2018-10-17T01:29:07.053Z,15.35
2018-10-17T01:31:36.068Z,15.35
2018-10-17T01:34:05.120Z,15.27
2018-10-17T01:36:34.202Z,15.26
2018-10-17T01:39:03.671Z,15.20
2018-10-17T01:41:32.736Z,15.13
2018-10-17T01:44:01.774Z,15.16
2018-10-17T01:46:30.857Z,15.07
2018-10-17T01:48:59.953Z,15.07
2018-10-17T01:51:28.964Z,15.01
2018-10-17T01:53:58.031Z,15.01
2018-10-17T01:56:27.076Z,14.93
2018-10-17T01:58:56.143Z,14.89
2018-10-17T02:01:25.178Z,14.83
2018-10-17T02:03:54.235Z,14.78
2018-10-17T02:06:23.348Z,14.79
2018-10-17T02:08:52.411Z,14.72
2018-10-17T02:23:15.463Z,14.58
2018-10-17T02:25:44.482Z,14.53
2018-10-17T02:28:13.545Z,14.53
2018-10-17T02:30:42.645Z,14.49
2018-10-17T02:33:11.771Z,14.48
2018-10-17T02:35:40.814Z,14.43
2018-10-17T02:38:09.878Z,14.43
2018-10-17T02:40:38.943Z,14.42
2018-10-17T02:43:08.134Z,14.41
2018-10-17T02:45:37.131Z,14.39
2018-10-17T02:48:06.214Z,14.36
2018-10-17T02:50:35.280Z,14.37
2018-10-17T02:53:04.392Z,14.33
2018-10-17T02:55:33.399Z,14.31
2018-10-17T02:58:02.470Z,14.28
2018-10-17T03:00:31.490Z,14.27
2018-10-17T03:03:00.566Z,14.27
2018-10-17T03:05:29.605Z,14.23
2018-10-17T03:07:58.703Z,14.20
2018-10-17T03:10:27.748Z,14.20
2018-10-17T03:12:56.872Z,14.06
2018-10-17T03:15:26.794Z,14.07
2018-10-17T03:17:55.873Z,14.10
2018-10-17T03:20:24.947Z,14.07
2018-10-17T03:22:54.073Z,14.05
2018-10-17T03:25:23.067Z,14.03
2018-10-17T03:27:52.235Z,14.02
2018-10-17T03:30:21.192Z,14.01
2018-10-17T03:32:50.258Z,13.99
2018-10-17T03:35:19.400Z,13.94
2018-10-17T03:37:48.487Z,13.93
2018-10-17T03:40:17.819Z,13.90
2018-10-17T03:42:46.910Z,13.71
2018-10-17T03:45:16.017Z,13.91
2018-10-17T03:47:45.421Z,13.91
2018-10-17T03:50:14.551Z,13.90
2018-10-17T03:52:43.649Z,13.90
2018-10-17T03:55:12.844Z,13.87
2018-10-17T03:57:41.904Z,13.87
2018-10-17T04:00:11.095Z,13.86
2018-10-17T04:02:40.184Z,13.83
2018-10-17T04:05:09.398Z,13.81
2018-10-17T04:07:38.740Z,13.75
2018-10-17T04:10:07.812Z,13.76
2018-10-17T04:12:36.897Z,13.74
2018-10-17T04:15:06.384Z,13.71
2018-10-17T04:17:36.338Z,13.74
2018-10-17T04:20:05.431Z,13.73
2018-10-17T04:22:34.549Z,13.71
2018-10-17T04:25:03.591Z,13.69
2018-10-17T04:27:32.583Z,13.69
2018-10-17T04:30:01.635Z,13.66
2018-10-17T04:32:30.768Z,13.63
2018-10-17T04:34:59.886Z,13.63
2018-10-17T04:37:28.927Z,13.60
2018-10-17T04:39:58.006Z,13.57
2018-10-17T04:42:27.067Z,13.55
2018-10-17T04:44:56.143Z,13.55
2018-10-17T04:47:25.319Z,13.56
2018-10-17T04:49:54.377Z,13.52
2018-10-17T04:52:23.585Z,13.50
2018-10-17T04:54:52.684Z,13.49
2018-10-17T04:57:21.810Z,13.47
2018-10-17T04:59:50.860Z,13.45
2018-10-17T05:02:19.998Z,13.42
2018-10-17T05:04:49.055Z,13.42
2018-10-17T05:07:18.201Z,13.41
2018-10-17T05:09:49.249Z,13.38
2018-10-17T05:12:18.299Z,13.35
2018-10-17T05:14:47.446Z,13.33
2018-10-17T05:17:16.549Z,13.32
2018-10-17T05:19:45.729Z,13.34
2018-10-17T05:22:14.763Z,13.36
2018-10-17T05:24:43.804Z,13.27
2018-10-17T05:27:12.835Z,13.22
2018-10-17T05:29:41.913Z,13.26
2018-10-17T05:32:10.963Z,13.17
2018-10-17T05:34:39.993Z,13.16
2018-10-17T05:37:09.095Z,13.13
2018-10-17T05:39:38.170Z,13.10
2018-10-17T05:42:07.241Z,13.02
2018-10-17T05:44:36.324Z,13.01
2018-10-17T05:47:05.476Z,12.99
2018-10-17T05:49:34.507Z,12.98
2018-10-17T05:52:03.553Z,12.95
2018-10-17T05:54:32.647Z,12.95
2018-10-17T05:57:01.686Z,12.92
2018-10-17T05:59:30.728Z,12.93
2018-10-17T06:02:00.586Z,12.89
2018-10-17T06:04:29.566Z,12.94
2018-10-17T06:06:58.618Z,12.86
2018-10-17T06:09:27.649Z,12.84
2018-10-17T06:11:56.664Z,12.78
2018-10-17T06:14:25.699Z,12.77
2018-10-17T06:16:54.840Z,12.76
2018-10-17T06:19:23.873Z,12.73
2018-10-17T06:21:52.910Z,12.75
2018-10-17T06:24:21.945Z,12.74
2018-10-17T06:26:51.004Z,12.70
2018-10-17T06:29:20.035Z,12.70
2018-10-17T06:31:49.082Z,12.68
2018-10-17T06:34:18.162Z,12.64
2018-10-17T06:36:47.210Z,12.63
2018-10-17T06:39:16.258Z,12.63
2018-10-17T06:41:45.321Z,12.63
2018-10-17T06:44:14.343Z,12.63
2018-10-17T06:46:43.421Z,12.62
2018-10-17T06:49:12.525Z,12.61
2018-10-17T06:51:41.509Z,12.64
2018-10-17T06:54:10.618Z,12.64
2018-10-17T06:56:39.677Z,12.65
2018-10-17T06:59:08.736Z,12.63
2018-10-17T07:01:37.780Z,12.67
2018-10-17T07:04:06.942Z,12.68
2018-10-17T07:06:35.963Z,12.72
2018-10-17T07:09:07.664Z,12.74
2018-10-17T07:11:36.897Z,12.78
2018-10-17T07:14:06.137Z,12.83
2018-10-17T07:16:35.340Z,12.87
2018-10-17T07:19:05.658Z,12.92
2018-10-17T07:21:34.655Z,12.98
2018-10-17T07:24:03.728Z,13.02
2018-10-17T07:26:32.775Z,13.09
2018-10-17T07:29:01.841Z,13.15
2018-10-17T07:31:31.162Z,13.23
2018-10-17T07:34:00.241Z,13.28
2018-10-17T07:36:29.262Z,13.35
2018-10-17T07:38:58.298Z,13.43
2018-10-17T07:41:27.383Z,13.50
2018-10-17T07:43:56.427Z,13.57
2018-10-17T07:46:26.696Z,13.64
2018-10-17T07:48:55.766Z,13.73
2018-10-17T07:51:24.831Z,13.80
2018-10-17T07:53:54.086Z,13.89
2018-10-17T07:56:23.110Z,13.98
2018-10-17T07:58:52.133Z,14.05
2018-10-17T08:01:21.616Z,14.08
2018-10-17T08:03:50.658Z,14.15
2018-10-17T08:06:19.738Z,14.24
2018-10-17T08:08:48.740Z,14.35
2018-10-17T08:11:17.818Z,14.40
2018-10-17T08:13:46.945Z,14.51
2018-10-17T08:16:16.010Z,14.65
2018-10-17T08:18:45.077Z,14.77
2018-10-17T08:21:14.161Z,14.83
2018-10-17T08:23:43.166Z,14.93
2018-10-17T08:26:12.257Z,15.03
2018-10-17T08:28:41.309Z,15.11
2018-10-17T08:31:10.354Z,15.14
2018-10-17T08:33:39.413Z,15.24
2018-10-17T08:36:08.684Z,15.28
2018-10-17T08:38:37.519Z,15.28
2018-10-17T08:41:06.734Z,15.40
2018-10-17T08:43:35.695Z,15.40
2018-10-17T08:46:04.756Z,15.62
2018-10-17T08:48:33.805Z,15.76
2018-10-17T08:51:02.850Z,15.86
2018-10-17T08:53:31.865Z,15.83
2018-10-17T08:56:00.945Z,15.98
2018-10-17T08:58:30.079Z,16.10
2018-10-17T09:00:59.106Z,16.20
2018-10-17T09:03:28.134Z,16.32
2018-10-17T09:05:57.182Z,16.50
2018-10-17T09:08:26.187Z,16.72
2018-10-17T09:10:55.253Z,16.87
2018-10-17T09:13:24.378Z,17.07
2018-10-17T09:15:53.407Z,17.31
2018-10-17T09:18:22.428Z,17.57
2018-10-17T09:20:51.923Z,17.80
2018-10-17T09:23:20.533Z,17.96
2018-10-17T09:25:50.435Z,18.22
2018-10-17T09:28:21.216Z,18.54
2018-10-17T09:30:50.349Z,18.84
2018-10-17T09:33:19.447Z,19.08
2018-10-17T09:35:49.631Z,19.30
2018-10-17T09:38:18.703Z,19.63
2018-10-17T09:40:47.821Z,19.85
2018-10-17T09:43:16.988Z,20.10
2018-10-17T09:45:46.103Z,19.91
2018-10-17T09:48:15.335Z,20.02
2018-10-17T09:50:44.381Z,20.10
2018-10-17T09:53:13.526Z,20.26
2018-10-17T09:55:42.634Z,20.50
2018-10-17T09:58:11.856Z,20.73
2018-10-17T10:00:45.998Z,20.61
2018-10-17T10:03:15.053Z,21.21
2018-10-17T10:05:44.102Z,21.67
2018-10-17T10:08:14.422Z,21.85
2018-10-17T10:10:43.530Z,21.92
2018-10-17T10:13:12.551Z,21.89
2018-10-17T10:15:41.621Z,21.87
2018-10-17T10:18:11.094Z,21.66
2018-10-17T10:20:40.122Z,22.27
2018-10-17T10:23:09.240Z,21.63
2018-10-17T10:25:38.229Z,22.27
2018-10-17T10:28:07.348Z,22.11
2018-10-17T10:30:36.375Z,22.31
2018-10-17T10:33:05.895Z,22.46
2018-10-17T10:35:34.973Z,22.38
2018-10-17T10:38:04.040Z,22.52
2018-10-17T10:40:33.156Z,22.53
2018-10-17T10:43:02.495Z,22.01
2018-10-17T10:45:31.624Z,21.71
2018-10-17T10:48:00.704Z,21.84
2018-10-17T10:50:29.756Z,21.87
2018-10-17T10:52:58.841Z,21.76
2018-10-17T10:55:27.935Z,21.70
2018-10-17T10:57:57.053Z,21.90
2018-10-17T11:00:26.523Z,22.16
2018-10-17T11:02:55.634Z,21.99
2018-10-17T11:05:24.868Z,21.72
2018-10-17T11:07:53.841Z,21.40
2018-10-17T11:10:22.838Z,21.71
2018-10-17T11:12:51.933Z,21.74
2018-10-17T11:15:21.047Z,21.52
2018-10-17T11:17:50.125Z,21.78
2018-10-17T11:20:19.203Z,21.59
2018-10-17T11:22:48.282Z,21.85
2018-10-17T11:25:17.355Z,21.42
2018-10-17T11:27:46.458Z,21.49
2018-10-17T11:30:16.487Z,21.73
2018-10-17T11:32:45.596Z,21.65
2018-10-17T11:35:14.748Z,21.96
2018-10-17T11:37:43.832Z,21.73
2018-10-17T11:40:12.892Z,21.98
2018-10-17T11:42:41.939Z,22.18
2018-10-17T11:45:11.076Z,22.38
2018-10-17T11:47:40.182Z,22.45
2018-10-17T11:50:10.085Z,22.76
2018-10-17T11:52:39.430Z,23.04
2018-10-17T11:55:08.989Z,23.00
2018-10-17T11:57:38.566Z,23.20
2018-10-17T12:00:09.876Z,23.41
2018-10-17T12:02:39.135Z,23.47
2018-10-17T12:05:11.233Z,23.39
2018-10-17T12:07:40.341Z,23.72
2018-10-17T12:10:11.414Z,23.77
2018-10-17T12:12:40.587Z,23.85
2018-10-17T12:15:12.480Z,24.09
2018-10-17T12:17:41.890Z,23.89
2018-10-17T12:20:13.663Z,24.33
2018-10-17T12:22:51.620Z,24.30
2018-10-17T12:25:20.979Z,24.18
2018-10-17T12:27:50.302Z,24.44
2018-10-17T12:30:20.461Z,24.55
2018-10-17T12:32:49.631Z,24.33
2018-10-17T12:35:18.902Z,24.22
2018-10-17T12:37:47.848Z,24.60
2018-10-17T12:40:17.631Z,24.65
2018-10-17T12:42:46.660Z,24.67
2018-10-17T12:45:15.879Z,24.93
2018-10-17T12:47:45.053Z,24.99
2018-10-17T12:50:14.316Z,25.36
2018-10-17T12:52:43.578Z,25.42
2018-10-17T12:55:12.628Z,25.34
2018-10-17T12:57:41.708Z,25.04
2018-10-17T13:00:10.963Z,24.89
2018-10-17T13:02:42.437Z,24.90
2018-10-17T13:05:11.697Z,25.13
2018-10-17T13:07:40.686Z,25.38
2018-10-17T13:10:10.596Z,25.08
2018-10-17T13:12:41.595Z,25.41
2018-10-17T13:15:13.016Z,25.18
2018-10-17T13:17:43.171Z,25.01
2018-10-17T13:20:12.233Z,24.65
2018-10-17T13:22:42.250Z,24.87
2018-10-17T13:25:11.480Z,24.81
2018-10-17T13:27:40.484Z,24.38
2018-10-17T13:30:09.678Z,23.78
2018-10-17T13:32:38.776Z,23.86
2018-10-17T13:35:08.033Z,23.89
2018-10-17T13:37:37.118Z,23.91
2018-10-17T13:40:06.542Z,23.68
2018-10-17T13:42:35.698Z,23.62
2018-10-17T13:45:06.025Z,23.50
2018-10-17T13:47:35.090Z,23.61
2018-10-17T13:50:04.272Z,23.69
2018-10-17T13:52:33.341Z,23.91
2018-10-17T13:55:02.468Z,23.77
2018-10-17T13:57:31.551Z,23.82
2018-10-17T14:00:00.579Z,24.11
2018-10-17T14:02:29.632Z,23.90
2018-10-17T14:04:58.688Z,23.67
2018-10-17T14:07:27.764Z,23.47
2018-10-17T14:09:56.839Z,23.26
2018-10-17T14:12:26.002Z,23.85
2018-10-17T14:14:55.974Z,24.12
2018-10-17T14:17:25.119Z,24.25
2018-10-17T14:19:54.317Z,24.07
2018-10-17T14:22:23.447Z,24.09
2018-10-17T14:24:52.573Z,23.90
2018-10-17T14:27:21.637Z,23.83
2018-10-17T14:29:50.750Z,23.83
2018-10-17T14:32:19.870Z,23.72
2018-10-17T14:34:49.042Z,23.94
2018-10-17T14:37:18.221Z,23.57
2018-10-17T14:39:47.650Z,23.41
2018-10-17T14:42:16.887Z,23.28
2018-10-17T14:44:48.450Z,23.06
2018-10-17T14:47:17.645Z,22.93
2018-10-17T14:49:46.918Z,23.01
2018-10-17T14:52:16.091Z,22.79
2018-10-17T14:54:45.287Z,22.93
2018-10-17T14:57:15.887Z,22.79
2018-10-17T14:59:44.990Z,22.72
2018-10-17T15:02:14.208Z,22.73
2018-10-17T15:04:43.578Z,22.82
2018-10-17T15:07:12.750Z,22.73
2018-10-17T15:09:41.982Z,22.69
2018-10-17T15:12:11.178Z,22.57
2018-10-17T15:14:40.306Z,22.61
2018-10-17T15:17:09.568Z,22.57
2018-10-17T15:19:41.098Z,22.48
2018-10-17T15:22:11.100Z,22.16
2018-10-17T15:24:40.271Z,22.03
2018-10-17T15:27:09.494Z,22.25
2018-10-17T15:29:38.668Z,22.21
2018-10-17T15:32:07.843Z,22.21
2018-10-17T15:34:36.978Z,22.23
2018-10-17T15:37:06.438Z,22.27
2018-10-17T15:39:37.773Z,22.21
2018-10-17T15:42:06.884Z,22.13
2018-10-17T15:44:36.035Z,22.14
2018-10-17T15:47:05.403Z,21.94
2018-10-17T15:49:34.578Z,21.80
2018-10-17T15:52:04.611Z,21.60
2018-10-17T15:54:33.697Z,21.60
2018-10-17T15:57:02.815Z,21.46
2018-10-17T15:59:31.866Z,21.47
2018-10-17T16:02:01.083Z,21.42
2018-10-17T16:04:30.235Z,21.34
2018-10-17T16:06:59.365Z,21.31
2018-10-17T16:09:28.458Z,21.25
2018-10-17T16:11:57.535Z,21.02
2018-10-17T16:14:27.190Z,20.95
2018-10-17T16:16:56.284Z,20.79
2018-10-17T16:19:25.438Z,20.80
2018-10-17T16:21:54.542Z,20.58
2018-10-17T16:24:23.625Z,20.28
2018-10-17T16:26:52.723Z,20.48
2018-10-17T16:29:21.882Z,20.50
2018-10-17T16:31:50.995Z,20.41
2018-10-17T16:34:20.182Z,20.32
2018-10-17T16:36:49.276Z,20.42
2018-10-17T16:39:18.398Z,20.41
2018-10-17T16:41:47.456Z,20.37
2018-10-17T16:44:16.702Z,20.45
2018-10-17T16:46:45.701Z,20.30
2018-10-17T16:49:14.855Z,20.18
2018-10-17T16:51:44.043Z,20.22
2018-10-17T16:54:13.183Z,20.11
2018-10-17T16:56:42.237Z,20.13
2018-10-17T16:59:11.335Z,20.09
2018-10-17T17:01:40.986Z,19.99
2018-10-17T17:04:13.044Z,19.97
2018-10-17T17:06:42.149Z,19.96
2018-10-17T17:09:12.013Z,19.83
2018-10-17T17:11:41.147Z,19.83
2018-10-17T17:14:10.356Z,19.64
2018-10-17T17:16:39.593Z,19.61
2018-10-17T17:19:08.765Z,19.57
2018-10-17T17:21:37.877Z,19.42
2018-10-17T17:24:06.973Z,19.38
2018-10-17T17:26:36.079Z,19.37
2018-10-17T17:29:05.442Z,19.35
2018-10-17T17:31:34.567Z,19.29
2018-10-17T17:34:03.647Z,19.24
2018-10-17T17:36:32.824Z,19.23
2018-10-17T17:39:01.883Z,19.10
2018-10-17T17:44:00.467Z,18.95
2018-10-17T17:46:29.675Z,18.90
2018-10-17T17:48:58.884Z,18.78
2018-10-17T17:51:28.019Z,18.70
2018-10-17T17:53:57.265Z,18.66
2018-10-17T17:56:26.557Z,18.51
2018-10-17T17:58:55.856Z,18.45
2018-10-17T18:01:25.156Z,18.47
2018-10-17T18:03:54.399Z,18.37
2018-10-17T18:06:23.590Z,18.27
2018-10-17T18:08:52.787Z,18.21
2018-10-17T18:11:24.171Z,18.17
2018-10-17T18:13:54.691Z,18.06
2018-10-17T18:16:23.930Z,18.01
2018-10-17T18:18:53.127Z,17.99
2018-10-17T18:21:23.892Z,17.96
2018-10-17T18:23:53.031Z,17.88
2018-10-17T18:26:22.255Z,17.83
2018-10-17T18:28:51.380Z,17.78
2018-10-17T18:31:20.671Z,17.71
2018-10-17T18:33:49.836Z,17.67
2018-10-17T18:36:19.008Z,17.68
2018-10-17T18:38:48.297Z,17.58
2018-10-17T18:41:17.598Z,17.58
2018-10-17T18:43:47.052Z,17.45
2018-10-17T18:46:16.210Z,17.37
2018-10-17T18:48:45.306Z,17.29
2018-10-17T18:51:14.467Z,17.23
2018-10-17T18:53:43.599Z,17.25
2018-10-17T18:56:12.855Z,17.12
2018-10-17T18:58:42.196Z,17.06
2018-10-17T19:01:11.284Z,16.99
2018-10-17T19:03:40.386Z,17.01
2018-10-17T19:06:09.427Z,16.94
2018-10-17T19:08:38.530Z,16.90
2018-10-17T19:11:07.952Z,16.83
2018-10-17T19:13:37.094Z,16.83
2018-10-17T19:16:06.272Z,16.78
2018-10-17T19:18:35.314Z,16.75
2018-10-17T19:21:05.977Z,16.72
2018-10-17T19:23:34.952Z,16.66
2018-10-17T19:26:03.988Z,16.64
2018-10-17T19:28:33.018Z,16.58
2018-10-17T19:31:02.046Z,16.55
2018-10-17T19:33:31.096Z,16.50
2018-10-17T19:36:00.172Z,16.45
2018-10-17T19:38:29.157Z,16.45
2018-10-17T19:40:58.197Z,16.40
2018-10-17T19:43:27.266Z,16.33
2018-10-17T19:45:56.294Z,16.32
2018-10-17T19:48:25.625Z,16.32
2018-10-17T19:50:54.711Z,16.27
2018-10-17T19:53:23.727Z,16.29
2018-10-17T19:55:52.810Z,16.23
2018-10-17T19:58:21.835Z,16.20
2018-10-17T20:00:50.860Z,16.21
2018-10-17T20:03:19.910Z,16.10
2018-10-17T20:05:48.954Z,16.12
2018-10-17T20:08:17.991Z,16.06
2018-10-17T20:10:47.053Z,16.02
2018-10-17T20:13:17.098Z,15.99
2018-10-17T20:15:46.192Z,16.00
2018-10-17T20:18:15.203Z,15.96
2018-10-17T20:20:44.270Z,15.94
2018-10-17T20:23:13.291Z,15.90
2018-10-17T20:25:44.343Z,15.83
2018-10-17T20:28:13.365Z,15.77
2018-10-17T20:30:42.410Z,15.71
2018-10-17T20:33:11.521Z,15.72
2018-10-17T20:35:40.553Z,15.72
2018-10-17T20:38:09.607Z,15.69
2018-10-17T20:40:38.648Z,15.64
2018-10-17T20:43:07.674Z,15.65
2018-10-17T20:45:36.739Z,15.61
2018-10-17T20:48:05.831Z,15.56
2018-10-17T20:50:34.885Z,15.57
2018-10-17T20:53:03.912Z,15.53
2018-10-17T20:55:32.926Z,15.49
2018-10-17T20:58:01.990Z,15.47
2018-10-17T21:00:30.983Z,15.43
2018-10-17T21:03:00.011Z,15.44
2018-10-17T21:05:29.041Z,15.43
2018-10-17T21:07:58.095Z,15.44
2018-10-17T21:10:27.113Z,15.38
2018-10-17T21:12:56.166Z,15.37
2018-10-17T21:15:25.226Z,15.32
2018-10-17T21:17:54.290Z,15.30
2018-10-17T21:20:23.363Z,15.27
2018-10-17T21:22:52.689Z,15.26
2018-10-17T21:25:21.759Z,15.26
2018-10-17T21:27:50.826Z,15.25
2018-10-17T21:30:19.868Z,15.22
2018-10-17T21:32:48.890Z,15.20
2018-10-17T21:35:17.948Z,15.18
2018-10-17T21:37:47.017Z,15.18
2018-10-17T21:40:16.046Z,15.14
2018-10-17T21:42:45.062Z,15.15
2018-10-17T21:45:14.216Z,15.12
2018-10-17T21:47:43.262Z,15.15
2018-10-17T21:50:12.424Z,15.15
2018-10-17T21:52:41.374Z,15.16
2018-10-17T21:55:10.402Z,15.11
2018-10-17T21:57:39.435Z,15.13
2018-10-17T22:00:10.082Z,15.08
2018-10-17T22:02:39.337Z,15.08
2018-10-17T22:05:09.498Z,15.05
2018-10-17T22:07:38.698Z,15.05
2018-10-17T22:10:08.535Z,15.05
2018-10-17T22:12:37.917Z,15.06
2018-10-17T22:15:07.980Z,15.03
2018-10-17T22:17:37.009Z,15.03
2018-10-17T22:20:06.560Z,14.99
2018-10-17T22:22:35.602Z,15.00
2018-10-17T22:25:04.768Z,14.96
2018-10-17T22:27:33.807Z,14.97
2018-10-17T22:30:02.935Z,14.91
2018-10-17T22:32:31.875Z,14.93
2018-10-17T22:35:00.916Z,14.89
2018-10-17T22:37:29.935Z,14.90
2018-10-17T22:39:58.977Z,14.86
2018-10-17T22:42:28.024Z,14.91
2018-10-17T22:44:57.067Z,14.86
2018-10-17T22:47:26.170Z,14.81
2018-10-17T22:49:55.243Z,14.83
2018-10-17T22:52:24.301Z,14.80
2018-10-17T22:54:53.357Z,14.80
2018-10-17T22:57:22.390Z,14.77
2018-10-17T22:59:51.450Z,14.69
2018-10-17T23:02:20.509Z,14.74
2018-10-17T23:04:49.560Z,14.70
2018-10-17T23:07:18.591Z,14.67
2018-10-17T23:09:48.646Z,14.68
2018-10-17T23:12:17.695Z,14.59
2018-10-17T23:14:46.768Z,14.57
2018-10-17T23:17:15.811Z,14.57
2018-10-17T23:19:44.853Z,14.53
2018-10-17T23:22:13.942Z,14.44
2018-10-17T23:24:43.026Z,14.45
2018-10-17T23:27:12.097Z,14.45
2018-10-17T23:29:41.131Z,14.42
2018-10-17T23:32:10.202Z,14.40
2018-10-17T23:34:39.187Z,14.42
2018-10-17T23:37:08.233Z,14.40
2018-10-17T23:39:37.277Z,14.42
2018-10-17T23:42:06.733Z,14.39
2018-10-17T23:44:35.697Z,14.36
2018-10-17T23:47:04.777Z,14.31
2018-10-17T23:49:33.866Z,14.30
2018-10-17T23:52:02.906Z,14.27
2018-10-17T23:54:31.961Z,14.24
2018-10-17T23:57:01.004Z,14.22
2018-10-17T23:59:30.075Z,14.21
